createdAt,value
2023-01-25T00:00:00.905Z,101168.22
2023-01-25T00:02:32.662Z,101171.69
2023-01-25T00:05:04.936Z,101172.59
2023-01-25T00:07:36.769Z,101157.84
2023-01-25T00:10:09.116Z,101162.81
2023-01-25T00:12:40.829Z,101167.91
2023-01-25T00:15:12.610Z,101161.84
2023-01-25T00:17:44.353Z,101166.59
2023-01-25T00:20:16.607Z,101161.69
2023-01-25T00:22:48.291Z,101168.63
2023-01-25T00:25:19.934Z,101168.78
2023-01-25T00:27:52.435Z,101157.31
2023-01-25T00:30:24.140Z,101156.31
2023-01-25T00:33:29.473Z,101148.25
2023-01-25T00:36:01.743Z,101150.78
2023-01-25T00:38:38.591Z,101149.16
2023-01-25T00:41:10.419Z,101149.09
2023-01-25T00:43:42.458Z,101145.28
2023-01-25T00:46:17.184Z,101149.47
2023-01-25T00:48:49.495Z,101150.31
2023-01-25T00:51:22.706Z,101150.25
2023-01-25T00:53:54.614Z,101147.38
2023-01-25T00:56:29.060Z,101142.59
2023-01-25T00:59:00.721Z,101150.75
2023-01-25T01:01:34.124Z,101150.75
2023-01-25T01:04:06.671Z,101149.06
2023-01-25T01:06:39.933Z,101151.66
2023-01-25T01:09:14.832Z,101147.34
2023-01-25T01:11:46.486Z,101145.66
2023-01-25T01:14:18.717Z,101145.53
2023-01-25T01:16:50.550Z,101150.56
2023-01-25T01:19:23.626Z,101152.19
2023-01-25T01:21:55.915Z,101152.25
2023-01-25T01:24:27.689Z,101147.03
2023-01-25T01:26:59.382Z,101148.56
2023-01-25T01:29:32.246Z,101141.81
2023-01-25T01:32:05.084Z,101147.03
2023-01-25T01:34:36.945Z,101143.66
2023-01-25T01:37:08.668Z,101140.19
2023-01-25T01:39:40.551Z,101144.25
2023-01-25T01:42:12.475Z,101145.81
2023-01-25T01:44:53.315Z,101144.72
2023-01-25T01:47:31.694Z,101142.03
2023-01-25T01:50:28.866Z,101138.63
2023-01-25T01:53:00.689Z,101132.75
2023-01-25T01:55:32.622Z,101138.34
2023-01-25T01:58:06.507Z,101124.63
2023-01-25T02:00:40.701Z,101129.38
2023-01-25T02:03:14.868Z,101133.59
2023-01-25T02:06:04.842Z,101127.97
2023-01-25T02:08:40.814Z,101138.09
2023-01-25T02:11:13.748Z,101129.19
2023-01-25T02:13:45.679Z,101125.50
2023-01-25T02:16:26.136Z,101131.72
2023-01-25T02:19:02.142Z,101124.31
2023-01-25T02:21:43.213Z,101126.28
2023-01-25T02:24:28.043Z,101119.63
2023-01-25T02:27:01.221Z,101125.63
2023-01-25T02:29:33.392Z,101116.94
2023-01-25T02:32:06.575Z,101121.31
2023-01-25T02:34:38.304Z,101114.38
2023-01-25T02:37:14.520Z,101116.84
2023-01-25T02:39:46.381Z,101117.00
2023-01-25T02:42:18.313Z,101115.00
2023-01-25T02:44:51.345Z,101105.91
2023-01-25T02:47:23.026Z,101111.97
2023-01-25T02:49:54.691Z,101106.75
2023-01-25T02:52:26.778Z,101104.75
2023-01-25T02:55:00.752Z,101102.06
2023-01-25T02:57:32.961Z,101090.59
2023-01-25T03:00:06.603Z,101085.13
2023-01-25T03:02:41.559Z,101086.81
2023-01-25T03:05:13.264Z,101083.28
2023-01-25T03:07:44.980Z,101083.84
2023-01-25T03:10:16.790Z,101081.47
2023-01-25T03:12:48.591Z,101080.03
2023-01-25T03:15:23.384Z,101066.63
2023-01-25T03:17:56.745Z,101065.19
2023-01-25T03:20:28.596Z,101064.75
2023-01-25T03:23:00.273Z,101057.44
2023-01-25T03:25:32.735Z,101063.69
2023-01-25T03:28:13.648Z,101069.66
2023-01-25T03:30:49.941Z,101058.88
2023-01-25T03:33:22.271Z,101051.03
2023-01-25T03:35:55.095Z,101049.94
2023-01-25T03:38:27.600Z,101052.81
2023-01-25T03:40:59.604Z,101043.28
2023-01-25T03:43:32.529Z,101043.97
2023-01-25T03:46:08.118Z,101043.66
2023-01-25T03:48:39.801Z,101033.03
2023-01-25T03:51:11.641Z,101031.25
2023-01-25T03:53:46.674Z,101031.59
2023-01-25T03:56:21.299Z,101041.56
2023-01-25T03:59:06.837Z,101029.69
2023-01-25T04:01:40.059Z,101026.72
2023-01-25T04:04:12.703Z,101032.22
2023-01-25T04:06:46.484Z,101038.75
2023-01-25T04:09:21.703Z,101035.28
2023-01-25T04:11:56.852Z,101024.31
2023-01-25T04:14:43.658Z,101021.69
2023-01-25T04:17:17.568Z,101022.41
2023-01-25T04:19:57.030Z,101016.94
2023-01-25T04:22:33.626Z,101019.91
2023-01-25T04:25:06.340Z,101020.66
2023-01-25T04:27:38.769Z,101022.19
2023-01-25T04:30:18.817Z,101021.78
2023-01-25T04:32:53.047Z,101015.38
2023-01-25T04:35:35.070Z,101011.84
2023-01-25T04:38:10.755Z,101009.31
2023-01-25T04:40:46.196Z,101014.47
2023-01-25T04:43:19.170Z,101014.34
2023-01-25T04:45:56.791Z,101008.84
2023-01-25T04:48:34.294Z,101013.09
2023-01-25T04:51:09.920Z,101014.53
2023-01-25T04:53:41.655Z,101008.47
2023-01-25T04:56:15.162Z,101009.22
2023-01-25T04:58:55.211Z,101023.03
2023-01-25T05:01:27.114Z,101015.13
2023-01-25T05:03:59.880Z,101002.06
2023-01-25T05:06:42.486Z,101002.72
2023-01-25T05:09:15.057Z,101003.91
2023-01-25T05:11:46.966Z,101005.19
2023-01-25T05:14:44.721Z,101006.25
2023-01-25T05:17:19.658Z,101002.91
2023-01-25T05:19:51.244Z,101007.00
2023-01-25T05:22:26.184Z,101000.44
2023-01-25T05:24:59.255Z,100996.97
2023-01-25T05:27:31.096Z,101003.22
2023-01-25T05:30:02.761Z,101002.38
2023-01-25T05:33:00.461Z,101009.19
2023-01-25T05:35:32.196Z,101007.09
2023-01-25T05:38:04.486Z,101006.22
2023-01-25T05:40:36.150Z,101002.41
2023-01-25T05:43:08.740Z,100997.09
2023-01-25T05:45:40.561Z,101001.13
2023-01-25T05:48:13.283Z,101006.00
2023-01-25T05:50:44.897Z,101012.22
2023-01-25T05:53:26.074Z,101001.03
2023-01-25T05:56:06.671Z,101002.63
2023-01-25T05:58:39.664Z,101004.38
2023-01-25T06:01:11.929Z,101008.63
2023-01-25T06:03:52.700Z,101012.66
2023-01-25T06:06:25.198Z,101013.44
2023-01-25T06:08:58.135Z,101011.16
2023-01-25T06:11:36.346Z,101003.91
2023-01-25T06:14:10.454Z,101004.59
2023-01-25T06:16:42.641Z,101010.13
2023-01-25T06:19:39.387Z,101009.47
2023-01-25T06:22:14.656Z,101007.00
2023-01-25T06:24:46.364Z,101001.78
2023-01-25T06:27:18.070Z,101006.78
2023-01-25T06:29:50.472Z,101005.69
2023-01-25T06:32:22.205Z,101005.50
2023-01-25T06:34:55.897Z,100997.00
2023-01-25T06:37:29.468Z,100997.00
2023-01-25T06:40:01.252Z,100998.84
2023-01-25T06:42:32.878Z,100987.66
2023-01-25T06:45:04.987Z,100983.97
2023-01-25T06:47:36.608Z,100984.41
2023-01-25T06:50:09.848Z,100986.44
2023-01-25T06:52:41.523Z,100988.09
2023-01-25T06:55:14.995Z,100981.09
2023-01-25T06:57:46.862Z,100982.19
2023-01-25T07:00:19.488Z,100986.44
2023-01-25T07:02:51.251Z,100983.88
2023-01-25T07:05:25.757Z,100987.16
2023-01-25T07:07:58.240Z,100982.13
2023-01-25T07:10:30.434Z,100987.41
2023-01-25T07:13:03.081Z,100984.88
2023-01-25T07:15:34.752Z,100984.47
2023-01-25T07:18:15.920Z,100983.06
2023-01-25T07:20:50.705Z,100984.00
2023-01-25T07:23:22.354Z,100988.44
2023-01-25T07:25:54.037Z,100986.00
2023-01-25T07:28:25.716Z,100991.88
2023-01-25T07:31:03.757Z,100979.16
2023-01-25T07:33:35.802Z,100973.88
2023-01-25T07:36:10.048Z,100981.63
2023-01-25T07:38:41.909Z,100975.72
2023-01-25T07:41:14.695Z,100977.47
2023-01-25T07:43:47.189Z,100974.97
2023-01-25T07:46:25.514Z,100978.47
2023-01-25T07:48:58.878Z,100973.03
2023-01-25T07:51:31.162Z,100966.72
2023-01-25T07:54:05.388Z,100974.41
2023-01-25T07:56:38.478Z,100973.38
2023-01-25T07:59:10.770Z,100970.56
2023-01-25T08:01:43.671Z,100973.25
2023-01-25T08:04:16.651Z,100961.97
2023-01-25T08:06:48.445Z,100968.69
2023-01-25T08:09:20.383Z,100973.38
2023-01-25T08:11:53.692Z,100970.69
2023-01-25T08:14:25.606Z,100972.31
2023-01-25T08:16:57.358Z,100970.63
2023-01-25T08:19:29.005Z,100963.13
2023-01-25T08:22:02.927Z,100958.41
2023-01-25T08:24:37.654Z,100960.16
2023-01-25T08:27:09.393Z,100954.84
2023-01-25T08:29:41.018Z,100954.53
2023-01-25T08:32:12.815Z,100958.75
2023-01-25T08:34:47.490Z,100948.56
2023-01-25T08:37:20.028Z,100950.25
2023-01-25T08:39:51.802Z,100945.03
2023-01-25T08:42:26.595Z,100935.88
2023-01-25T08:44:58.543Z,100938.56
2023-01-25T08:47:30.500Z,100938.94
2023-01-25T08:50:03.063Z,100929.22
2023-01-25T08:52:37.591Z,100938.44
2023-01-25T08:55:10.772Z,100933.22
2023-01-25T08:57:42.817Z,100928.00
2023-01-25T09:00:15.092Z,100930.44
2023-01-25T09:02:48.443Z,100925.31
2023-01-25T09:05:20.077Z,100917.47
2023-01-25T09:07:51.734Z,100920.84
2023-01-25T09:10:23.525Z,100915.53
2023-01-25T09:12:55.515Z,100910.69
2023-01-25T09:15:29.664Z,100908.59
2023-01-25T09:18:01.451Z,100912.44
2023-01-25T09:20:34.554Z,100900.38
2023-01-25T09:23:06.542Z,100897.13
2023-01-25T09:25:38.244Z,100899.53
2023-01-25T09:28:11.619Z,100894.56
2023-01-25T09:30:48.294Z,100899.72
2023-01-25T09:33:36.742Z,100898.88
2023-01-25T09:36:09.956Z,100905.47
2023-01-25T09:38:41.921Z,100900.81
2023-01-25T09:41:41.902Z,100899.72
2023-01-25T09:44:45.303Z,100898.94
2023-01-25T09:47:27.549Z,100901.75
2023-01-25T09:50:17.035Z,100895.69
2023-01-25T09:53:21.898Z,100897.78
2023-01-25T09:56:01.316Z,100896.00
2023-01-25T09:58:39.744Z,100895.25
2023-01-25T10:01:38.482Z,100888.44
2023-01-25T10:04:18.805Z,100876.22
2023-01-25T10:07:01.306Z,100882.78
2023-01-25T10:09:42.725Z,100878.00
2023-01-25T10:12:25.753Z,100870.16
2023-01-25T10:14:57.457Z,100866.38
2023-01-25T10:17:40.705Z,100858.97
2023-01-25T10:20:24.237Z,100865.03
2023-01-25T10:23:40.011Z,100852.16
2023-01-25T10:26:35.864Z,100849.53
2023-01-25T10:29:27.542Z,100852.03
2023-01-25T10:32:35.911Z,100846.69
2023-01-25T10:35:34.831Z,100845.97
2023-01-25T10:38:30.979Z,100842.22
2023-01-25T10:41:28.818Z,100836.22
2023-01-25T10:44:18.971Z,100837.91
2023-01-25T10:47:11.673Z,100839.50
2023-01-25T10:49:55.015Z,100828.47
2023-01-25T10:52:32.268Z,100829.50
2023-01-25T10:55:07.384Z,100827.06
2023-01-25T10:57:44.327Z,100826.13
2023-01-25T11:00:35.609Z,100825.88
2023-01-25T11:03:22.582Z,100815.84
2023-01-25T11:05:57.061Z,100810.94
2023-01-25T11:08:38.643Z,100814.00
2023-01-25T11:11:36.219Z,100805.72
2023-01-25T11:14:17.627Z,100807.09
2023-01-25T11:16:49.642Z,100804.38
2023-01-25T11:19:43.560Z,100795.13
2023-01-25T11:22:24.791Z,100788.72
2023-01-25T11:24:56.538Z,100792.88
2023-01-25T11:27:28.501Z,100788.56
2023-01-25T11:30:06.581Z,100794.78
2023-01-25T11:32:40.313Z,100788.13
2023-01-25T11:35:34.515Z,100776.00
2023-01-25T11:38:14.463Z,100776.50
2023-01-25T11:40:51.037Z,100773.56
2023-01-25T11:43:48.345Z,100768.00
2023-01-25T11:47:01.757Z,100759.81
2023-01-25T11:49:51.363Z,100760.16
2023-01-25T11:52:46.378Z,100752.16
2023-01-25T11:55:34.298Z,100746.09
2023-01-25T11:59:16.710Z,100736.38
2023-01-25T12:02:00.066Z,100728.31
2023-01-25T12:04:50.117Z,100717.09
2023-01-25T12:07:46.738Z,100712.53
2023-01-25T12:10:34.578Z,100710.41
2023-01-25T12:13:18.277Z,100697.06
2023-01-25T12:15:58.798Z,100684.69
2023-01-25T12:19:02.015Z,100675.16
2023-01-25T12:21:41.481Z,100676.28
2023-01-25T12:24:50.103Z,100671.44
2023-01-25T12:27:48.741Z,100663.22
2023-01-25T12:30:51.265Z,100654.25
2023-01-25T12:33:28.191Z,100644.81
2023-01-25T12:36:08.774Z,100641.66
2023-01-25T12:38:53.038Z,100638.47
2023-01-25T12:41:46.402Z,100636.06
2023-01-25T12:44:50.314Z,100631.50
2023-01-25T12:47:33.397Z,100634.09
2023-01-25T12:50:23.340Z,100626.91
2023-01-25T12:53:01.747Z,100623.00
2023-01-25T12:55:33.693Z,100617.25
2023-01-25T12:58:43.869Z,100607.09
2023-01-25T13:01:46.773Z,100596.88
2023-01-25T13:04:37.316Z,100592.22
2023-01-25T13:07:14.775Z,100583.28
2023-01-25T13:10:18.933Z,100584.75
2023-01-25T13:13:03.218Z,100585.22
2023-01-25T13:15:36.319Z,100581.75
2023-01-25T13:18:30.138Z,100575.53
2023-01-25T13:21:05.553Z,100575.63
2023-01-25T13:23:43.825Z,100582.91
2023-01-25T13:26:21.657Z,100575.34
2023-01-25T13:28:59.649Z,100567.22
2023-01-25T13:31:53.071Z,100561.63
2023-01-25T13:34:40.334Z,100568.53
2023-01-25T13:37:29.103Z,100564.25
2023-01-25T13:40:34.470Z,100548.78
2023-01-25T13:43:19.099Z,100547.56
2023-01-25T13:45:53.104Z,100545.94
2023-01-25T13:48:28.684Z,100548.69
2023-01-25T13:51:10.898Z,100543.53
2023-01-25T13:53:43.416Z,100544.56
2023-01-25T13:56:30.650Z,100546.34
2023-01-25T13:59:02.932Z,100537.69
2023-01-25T14:01:36.969Z,100534.94
2023-01-25T14:04:12.316Z,100534.88
2023-01-25T14:06:45.173Z,100539.16
2023-01-25T14:09:20.899Z,100541.94
2023-01-25T14:11:58.468Z,100535.25
2023-01-25T14:14:35.322Z,100545.22
2023-01-25T14:17:09.950Z,100536.06
2023-01-25T14:19:44.633Z,100534.59
2023-01-25T14:22:33.426Z,100533.81
2023-01-25T14:25:15.533Z,100521.91
2023-01-25T14:27:59.131Z,100520.91
2023-01-25T14:30:32.802Z,100521.72
2023-01-25T14:33:18.436Z,100519.97
2023-01-25T14:35:57.400Z,100519.84
2023-01-25T14:38:36.124Z,100513.69
2023-01-25T14:41:43.761Z,100516.16
2023-01-25T14:44:21.267Z,100511.47
2023-01-25T14:47:26.655Z,100517.16
2023-01-25T14:50:30.730Z,100521.25
2023-01-25T14:53:24.561Z,100521.25
2023-01-25T14:55:57.429Z,100519.13
2023-01-25T14:58:31.611Z,100509.31
2023-01-25T15:01:03.776Z,100503.28
2023-01-25T15:03:44.732Z,100504.19
2023-01-25T15:06:17.007Z,100514.34
2023-01-25T15:08:48.943Z,100499.53
2023-01-25T15:11:38.647Z,100498.97
2023-01-25T15:14:17.375Z,100487.22
2023-01-25T15:16:50.698Z,100480.41
2023-01-25T15:19:30.221Z,100480.41
2023-01-25T15:22:01.933Z,100482.75
2023-01-25T15:24:33.747Z,100475.84
2023-01-25T15:27:05.457Z,100476.31
2023-01-25T15:29:38.673Z,100468.13
2023-01-25T15:32:20.712Z,100472.59
2023-01-25T15:35:00.769Z,100470.09
2023-01-25T15:37:32.511Z,100475.19
2023-01-25T15:40:04.654Z,100471.19
2023-01-25T15:42:39.646Z,100467.00
2023-01-25T15:45:13.651Z,100473.22
2023-01-25T15:47:45.804Z,100472.38
2023-01-25T15:50:21.642Z,100461.47
2023-01-25T15:52:53.354Z,100463.25
2023-01-25T15:55:25.386Z,100458.19
2023-01-25T15:57:57.808Z,100461.94
2023-01-25T16:00:29.493Z,100456.31
2023-01-25T16:03:01.143Z,100455.84
2023-01-25T16:05:32.869Z,100443.56
2023-01-25T16:08:06.526Z,100435.44
2023-01-25T16:10:38.275Z,100423.19
2023-01-25T16:13:10.725Z,100420.22
2023-01-25T16:15:42.995Z,100421.44
2023-01-25T16:18:15.200Z,100421.81
2023-01-25T16:20:48.765Z,100411.09
2023-01-25T16:23:20.395Z,100413.81
2023-01-25T16:25:52.143Z,100418.91
2023-01-25T16:28:24.547Z,100419.66
2023-01-25T16:30:57.904Z,100418.63
2023-01-25T16:33:29.668Z,100413.50
2023-01-25T16:36:13.029Z,100409.97
2023-01-25T16:38:45.060Z,100411.38
2023-01-25T16:41:17.275Z,100411.66
2023-01-25T16:43:49.145Z,100407.63
2023-01-25T16:46:23.034Z,100393.00
2023-01-25T16:48:57.835Z,100398.34
2023-01-25T16:51:32.925Z,100395.06
2023-01-25T16:54:04.630Z,100391.72
2023-01-25T16:56:36.301Z,100390.88
2023-01-25T16:59:09.427Z,100402.03
2023-01-25T17:01:41.911Z,100395.34
2023-01-25T17:04:15.461Z,100385.91
2023-01-25T17:06:49.995Z,100377.44
2023-01-25T17:09:24.988Z,100381.19
2023-01-25T17:11:57.220Z,100373.81
2023-01-25T17:14:28.909Z,100375.50
2023-01-25T17:17:01.750Z,100369.25
2023-01-25T17:19:37.287Z,100365.78
2023-01-25T17:22:09.489Z,100365.91
2023-01-25T17:24:41.345Z,100362.25
2023-01-25T17:27:13.067Z,100350.81
2023-01-25T17:29:46.433Z,100355.97
2023-01-25T17:32:18.218Z,100356.03
2023-01-25T17:34:50.446Z,100354.28
2023-01-25T17:37:23.616Z,100347.28
2023-01-25T17:39:55.476Z,100343.75
2023-01-25T17:42:27.164Z,100335.81
2023-01-25T17:44:58.980Z,100336.50
2023-01-25T17:47:31.741Z,100337.88
2023-01-25T17:50:03.998Z,100335.94
2023-01-25T17:52:35.810Z,100327.47
2023-01-25T17:55:10.363Z,100322.34
2023-01-25T17:57:43.261Z,100319.63
2023-01-25T18:00:15.521Z,100310.06
2023-01-25T18:02:47.791Z,100312.47
2023-01-25T18:05:19.615Z,100304.47
2023-01-25T18:07:53.317Z,100300.47
2023-01-25T18:10:26.407Z,100309.50
2023-01-25T18:13:04.477Z,100309.97
2023-01-25T18:15:39.901Z,100298.13
2023-01-25T18:18:11.535Z,100295.53
2023-01-25T18:20:54.849Z,100299.16
2023-01-25T18:23:27.008Z,100295.97
2023-01-25T18:26:00.941Z,100282.19
2023-01-25T18:28:40.047Z,100281.19
2023-01-25T18:31:17.787Z,100276.91
2023-01-25T18:33:55.636Z,100273.28
2023-01-25T18:36:30.448Z,100279.34
2023-01-25T18:39:02.245Z,100272.44
2023-01-25T18:41:33.997Z,100268.06
2023-01-25T18:44:07.365Z,100260.72
2023-01-25T18:46:43.135Z,100263.88
2023-01-25T18:49:14.930Z,100265.25
2023-01-25T18:52:05.203Z,100257.25
2023-01-25T18:54:47.196Z,100252.78
2023-01-25T18:57:21.611Z,100245.72
2023-01-25T18:59:57.453Z,100240.38
2023-01-25T19:02:30.924Z,100241.31
2023-01-25T19:05:02.709Z,100243.38
2023-01-25T19:07:34.543Z,100241.13
2023-01-25T19:10:07.402Z,100238.66
2023-01-25T19:12:39.124Z,100230.16
2023-01-25T19:15:11.410Z,100237.97
2023-01-25T19:17:46.557Z,100230.16
2023-01-25T19:20:18.503Z,100226.91
2023-01-25T19:22:54.204Z,100213.81
2023-01-25T19:25:26.438Z,100206.69
2023-01-25T19:27:59.114Z,100209.59
2023-01-25T19:30:31.648Z,100199.09
2023-01-25T19:33:03.534Z,100203.00
2023-01-25T19:35:35.299Z,100203.53
2023-01-25T19:38:07.923Z,100211.44
2023-01-25T19:40:40.777Z,100199.44
2023-01-25T19:43:12.984Z,100208.19
2023-01-25T19:45:44.776Z,100216.75
2023-01-25T19:48:16.566Z,100217.41
2023-01-25T19:50:52.323Z,100212.28
2023-01-25T19:53:26.134Z,100213.34
2023-01-25T19:56:01.821Z,100210.19
2023-01-25T19:58:34.252Z,100223.69
2023-01-25T20:01:10.907Z,100227.50
2023-01-25T20:03:43.251Z,100216.69
2023-01-25T20:06:17.915Z,100215.13
2023-01-25T20:08:49.700Z,100213.34
2023-01-25T20:11:27.453Z,100201.97
2023-01-25T20:14:02.222Z,100193.16
2023-01-25T20:16:36.106Z,100192.22
2023-01-25T20:19:07.807Z,100192.31
2023-01-25T20:21:42.022Z,100193.06
2023-01-25T20:24:16.769Z,100188.88
2023-01-25T20:26:49.041Z,100186.81
2023-01-25T20:29:21.505Z,100175.38
2023-01-25T20:31:54.552Z,100189.81
2023-01-25T20:34:26.889Z,100176.78
2023-01-25T20:37:00.327Z,100170.63
2023-01-25T20:39:31.991Z,100166.97
2023-01-25T20:42:03.793Z,100159.06
2023-01-25T20:44:35.518Z,100167.19
2023-01-25T20:47:07.238Z,100164.88
2023-01-25T20:49:41.887Z,100159.09
2023-01-25T20:52:13.974Z,100157.97
2023-01-25T20:54:45.676Z,100164.66
2023-01-25T20:57:17.354Z,100155.53
2023-01-25T20:59:49.818Z,100154.41
2023-01-25T21:02:21.548Z,100156.25
2023-01-25T21:04:54.012Z,100146.81
2023-01-25T21:07:25.696Z,100144.81
2023-01-25T21:09:57.337Z,100150.78
2023-01-25T21:12:35.174Z,100141.19
2023-01-25T21:15:11.016Z,100144.66
2023-01-25T21:17:42.999Z,100143.44
2023-01-25T21:20:15.183Z,100145.22
2023-01-25T21:22:47.248Z,100139.38
2023-01-25T21:25:18.961Z,100139.53
2023-01-25T21:27:51.058Z,100132.84
2023-01-25T21:30:25.656Z,100133.59
2023-01-25T21:32:57.416Z,100126.50
2023-01-25T21:35:29.566Z,100125.88
2023-01-25T21:38:04.247Z,100126.81
2023-01-25T21:40:38.798Z,100113.56
2023-01-25T21:43:12.194Z,100115.47
2023-01-25T21:46:05.019Z,100116.28
2023-01-25T21:49:03.718Z,100109.19
2023-01-25T21:51:35.400Z,100109.75
2023-01-25T21:54:10.346Z,100098.94
2023-01-25T21:56:42.735Z,100103.03
2023-01-25T21:59:15.166Z,100096.91
2023-01-25T22:01:47.527Z,100105.63
2023-01-25T22:04:22.203Z,100099.06
2023-01-25T22:06:55.112Z,100095.78
2023-01-25T22:09:27.307Z,100096.28
2023-01-25T22:12:01.810Z,100092.72
2023-01-25T22:14:34.810Z,100083.34
2023-01-25T22:17:06.509Z,100077.94
2023-01-25T22:19:38.257Z,100074.69
2023-01-25T22:22:12.686Z,100070.41
2023-01-25T22:24:44.836Z,100063.25
2023-01-25T22:27:44.839Z,100053.94
2023-01-25T22:30:17.342Z,100049.88
2023-01-25T22:32:49.014Z,100037.88
2023-01-25T22:35:20.725Z,100035.91
2023-01-25T22:37:52.424Z,100038.41
2023-01-25T22:40:26.736Z,100035.72
2023-01-25T22:42:58.428Z,100027.88
2023-01-25T22:45:30.172Z,100020.91
2023-01-25T22:48:01.839Z,100015.69
2023-01-25T22:50:33.569Z,100011.53
2023-01-25T22:53:06.525Z,100013.50
2023-01-25T22:55:38.218Z,100003.91
2023-01-25T22:58:10.708Z,100001.13
2023-01-25T23:00:45.946Z,100003.50
2023-01-25T23:03:17.624Z,99993.72
2023-01-25T23:05:50.625Z,99996.22
2023-01-25T23:08:22.281Z,99986.94
2023-01-25T23:10:59.903Z,99981.94
2023-01-25T23:13:31.761Z,99972.34
2023-01-25T23:16:05.082Z,99975.69
2023-01-25T23:18:52.115Z,99975.47
2023-01-25T23:21:27.310Z,99962.44
2023-01-25T23:24:01.029Z,99965.72
2023-01-25T23:26:38.019Z,99965.63
2023-01-25T23:29:12.672Z,99966.72
2023-01-25T23:31:44.838Z,99961.00
2023-01-25T23:34:19.224Z,99967.97
2023-01-25T23:36:50.975Z,99964.44
2023-01-25T23:39:28.682Z,99964.75
2023-01-25T23:42:00.341Z,99960.91
2023-01-25T23:44:34.664Z,99957.38
2023-01-25T23:47:06.367Z,99951.84
2023-01-25T23:49:38.138Z,99947.06
2023-01-25T23:52:09.951Z,99945.09
2023-01-25T23:54:41.587Z,99933.63
2023-01-25T23:57:13.352Z,99939.78
2023-01-25T23:59:45.039Z,99939.47
